sensor_id;sensor_type;location;lat;lon;timestamp;P1;durP1;ratioP1;P2;durP2;ratioP2
2854;SDS011;1435;49.472;10.940;2023-01-29T00:03:18;6.43;;;5.93;;
2854;SDS011;1435;49.472;10.940;2023-01-29T00:08:21;7.70;;;7.00;;
2854;SDS011;1435;49.472;10.940;2023-01-29T00:13:23;7.63;;;7.00;;
2854;SDS011;1435;49.472;10.940;2023-01-29T00:18:25;7.33;;;6.73;;
2854;SDS011;1435;49.472;10.940;2023-01-29T00:23:28;7.30;;;6.70;;
2854;SDS011;1435;49.472;10.940;2023-01-29T00:28:30;8.77;;;7.13;;
2854;SDS011;1435;49.472;10.940;2023-01-29T00:33:32;9.10;;;7.00;;
2854;SDS011;1435;49.472;10.940;2023-01-29T00:38:36;7.63;;;6.33;;
2854;SDS011;1435;49.472;10.940;2023-01-29T00:43:38;6.73;;;6.20;;
2854;SDS011;1435;49.472;10.940;2023-01-29T00:48:57;7.40;;;5.97;;
2854;SDS011;1435;49.472;10.940;2023-01-29T00:54:00;7.30;;;6.60;;
2854;SDS011;1435;49.472;10.940;2023-01-29T00:59:05;6.90;;;6.30;;
2854;SDS011;1435;49.472;10.940;2023-01-29T01:04:07;7.87;;;7.10;;
2854;SDS011;1435;49.472;10.940;2023-01-29T01:09:11;7.33;;;6.70;;
2854;SDS011;1435;49.472;10.940;2023-01-29T01:14:30;7.00;;;6.30;;
2854;SDS011;1435;49.472;10.940;2023-01-29T01:19:35;7.50;;;5.93;;
2854;SDS011;1435;49.472;10.940;2023-01-29T01:24:38;7.50;;;6.37;;
2854;SDS011;1435;49.472;10.940;2023-01-29T01:29:40;6.17;;;5.43;;
2854;SDS011;1435;49.472;10.940;2023-01-29T01:34:41;7.50;;;6.80;;
2854;SDS011;1435;49.472;10.940;2023-01-29T01:39:45;8.33;;;7.53;;
2854;SDS011;1435;49.472;10.940;2023-01-29T01:44:50;6.90;;;6.27;;
2854;SDS011;1435;49.472;10.940;2023-01-29T01:49:54;7.13;;;6.20;;
2854;SDS011;1435;49.472;10.940;2023-01-29T01:55:02;6.67;;;6.13;;
2854;SDS011;1435;49.472;10.940;2023-01-29T02:00:05;6.87;;;6.27;;
2854;SDS011;1435;49.472;10.940;2023-01-29T02:05:10;7.83;;;6.40;;
2854;SDS011;1435;49.472;10.940;2023-01-29T02:10:34;7.20;;;6.50;;
2854;SDS011;1435;49.472;10.940;2023-01-29T02:15:39;6.20;;;5.60;;
2854;SDS011;1435;49.472;10.940;2023-01-29T02:20:47;9.10;;;7.60;;
2854;SDS011;1435;49.472;10.940;2023-01-29T02:26:05;6.87;;;6.27;;
2854;SDS011;1435;49.472;10.940;2023-01-29T02:31:23;6.30;;;5.80;;
2854;SDS011;1435;49.472;10.940;2023-01-29T02:36:31;7.03;;;6.43;;
2854;SDS011;1435;49.472;10.940;2023-01-29T02:41:40;7.53;;;6.83;;
2854;SDS011;1435;49.472;10.940;2023-01-29T02:46:49;7.23;;;6.53;;
2854;SDS011;1435;49.472;10.940;2023-01-29T02:51:58;8.07;;;7.27;;
2854;SDS011;1435;49.472;10.940;2023-01-29T02:57:04;6.77;;;6.13;;
2854;SDS011;1435;49.472;10.940;2023-01-29T03:02:17;7.80;;;6.97;;
2854;SDS011;1435;49.472;10.940;2023-01-29T03:07:24;6.87;;;6.23;;
2854;SDS011;1435;49.472;10.940;2023-01-29T03:12:41;9.20;;;8.30;;
2854;SDS011;1435;49.472;10.940;2023-01-29T03:17:50;9.33;;;7.23;;
2854;SDS011;1435;49.472;10.940;2023-01-29T03:22:55;9.00;;;7.47;;
2854;SDS011;1435;49.472;10.940;2023-01-29T03:28:01;8.07;;;7.30;;
2854;SDS011;1435;49.472;10.940;2023-01-29T03:33:25;6.50;;;6.00;;
2854;SDS011;1435;49.472;10.940;2023-01-29T03:38:27;9.10;;;6.60;;
2854;SDS011;1435;49.472;10.940;2023-01-29T03:43:32;7.53;;;6.83;;
2854;SDS011;1435;49.472;10.940;2023-01-29T03:48:40;7.20;;;6.60;;
2854;SDS011;1435;49.472;10.940;2023-01-29T03:53:51;6.77;;;6.17;;
2854;SDS011;1435;49.472;10.940;2023-01-29T03:58:57;6.90;;;6.30;;
2854;SDS011;1435;49.472;10.940;2023-01-29T04:04:04;7.50;;;6.80;;
2854;SDS011;1435;49.472;10.940;2023-01-29T04:09:15;8.20;;;7.47;;
2854;SDS011;1435;49.472;10.940;2023-01-29T04:14:21;7.53;;;6.83;;
2854;SDS011;1435;49.472;10.940;2023-01-29T04:19:24;8.07;;;7.27;;
2854;SDS011;1435;49.472;10.940;2023-01-29T04:24:26;7.03;;;6.43;;
2854;SDS011;1435;49.472;10.940;2023-01-29T04:29:32;8.67;;;7.80;;
2854;SDS011;1435;49.472;10.940;2023-01-29T04:34:46;7.57;;;6.50;;
2854;SDS011;1435;49.472;10.940;2023-01-29T04:40:01;8.23;;;7.43;;
2854;SDS011;1435;49.472;10.940;2023-01-29T04:45:12;7.33;;;6.73;;
2854;SDS011;1435;49.472;10.940;2023-01-29T04:50:23;8.07;;;7.27;;
2854;SDS011;1435;49.472;10.940;2023-01-29T04:55:29;7.33;;;6.67;;
2854;SDS011;1435;49.472;10.940;2023-01-29T05:00:36;9.20;;;8.40;;
2854;SDS011;1435;49.472;10.940;2023-01-29T05:05:43;8.23;;;7.50;;
2854;SDS011;1435;49.472;10.940;2023-01-29T05:10:48;11.20;;;8.13;;
2854;SDS011;1435;49.472;10.940;2023-01-29T05:15:53;6.87;;;6.27;;
2854;SDS011;1435;49.472;10.940;2023-01-29T05:21:02;8.27;;;6.97;;
2854;SDS011;1435;49.472;10.940;2023-01-29T05:26:06;8.40;;;7.03;;
2854;SDS011;1435;49.472;10.940;2023-01-29T05:31:08;9.10;;;6.67;;
2854;SDS011;1435;49.472;10.940;2023-01-29T05:36:11;8.20;;;7.20;;
2854;SDS011;1435;49.472;10.940;2023-01-29T05:41:12;8.70;;;7.87;;
2854;SDS011;1435;49.472;10.940;2023-01-29T05:46:16;9.60;;;8.80;;
2854;SDS011;1435;49.472;10.940;2023-01-29T05:51:19;9.80;;;7.20;;
2854;SDS011;1435;49.472;10.940;2023-01-29T05:56:21;8.67;;;7.77;;
2854;SDS011;1435;49.472;10.940;2023-01-29T06:01:23;7.80;;;6.50;;
2854;SDS011;1435;49.472;10.940;2023-01-29T06:06:27;7.60;;;6.90;;
2854;SDS011;1435;49.472;10.940;2023-01-29T06:11:28;7.10;;;6.50;;
2854;SDS011;1435;49.472;10.940;2023-01-29T06:16:30;7.17;;;6.47;;
2854;SDS011;1435;49.472;10.940;2023-01-29T06:21:33;6.83;;;6.20;;
2854;SDS011;1435;49.472;10.940;2023-01-29T06:26:35;6.67;;;6.07;;
2854;SDS011;1435;49.472;10.940;2023-01-29T06:31:37;7.63;;;6.83;;
2854;SDS011;1435;49.472;10.940;2023-01-29T06:36:40;6.87;;;6.27;;
2854;SDS011;1435;49.472;10.940;2023-01-29T06:41:42;6.77;;;6.17;;
2854;SDS011;1435;49.472;10.940;2023-01-29T06:46:44;6.77;;;6.03;;
2854;SDS011;1435;49.472;10.940;2023-01-29T06:51:47;7.50;;;5.80;;
2854;SDS011;1435;49.472;10.940;2023-01-29T06:56:49;6.70;;;6.10;;
2854;SDS011;1435;49.472;10.940;2023-01-29T07:01:52;6.93;;;6.27;;
2854;SDS011;1435;49.472;10.940;2023-01-29T07:06:55;7.93;;;7.07;;
2854;SDS011;1435;49.472;10.940;2023-01-29T07:11:56;7.30;;;6.60;;
2854;SDS011;1435;49.472;10.940;2023-01-29T07:16:58;7.57;;;6.90;;
2854;SDS011;1435;49.472;10.940;2023-01-29T07:22:01;7.90;;;7.10;;
2854;SDS011;1435;49.472;10.940;2023-01-29T07:27:03;7.40;;;6.67;;
2854;SDS011;1435;49.472;10.940;2023-01-29T07:32:05;6.90;;;6.30;;
2854;SDS011;1435;49.472;10.940;2023-01-29T07:37:08;7.10;;;6.50;;
2854;SDS011;1435;49.472;10.940;2023-01-29T07:42:10;6.70;;;6.10;;
2854;SDS011;1435;49.472;10.940;2023-01-29T07:47:11;7.13;;;6.30;;
2854;SDS011;1435;49.472;10.940;2023-01-29T07:52:14;8.60;;;6.87;;
2854;SDS011;1435;49.472;10.940;2023-01-29T07:57:17;8.00;;;7.20;;
2854;SDS011;1435;49.472;10.940;2023-01-29T08:02:19;8.50;;;7.67;;
2854;SDS011;1435;49.472;10.940;2023-01-29T08:07:22;7.93;;;7.23;;
2854;SDS011;1435;49.472;10.940;2023-01-29T08:12:24;8.53;;;7.73;;
2854;SDS011;1435;49.472;10.940;2023-01-29T08:17:26;10.83;;;8.10;;
2854;SDS011;1435;49.472;10.940;2023-01-29T08:22:29;8.90;;;8.00;;
2854;SDS011;1435;49.472;10.940;2023-01-29T08:27:31;9.30;;;8.10;;
2854;SDS011;1435;49.472;10.940;2023-01-29T08:32:32;8.97;;;8.17;;
2854;SDS011;1435;49.472;10.940;2023-01-29T08:37:35;9.57;;;8.60;;
2854;SDS011;1435;49.472;10.940;2023-01-29T08:42:37;9.63;;;8.70;;
2854;SDS011;1435;49.472;10.940;2023-01-29T08:47:39;8.93;;;7.67;;
2854;SDS011;1435;49.472;10.940;2023-01-29T08:52:47;9.40;;;7.33;;
2854;SDS011;1435;49.472;10.940;2023-01-29T08:57:48;7.77;;;7.00;;
2854;SDS011;1435;49.472;10.940;2023-01-29T09:02:50;8.03;;;7.30;;
2854;SDS011;1435;49.472;10.940;2023-01-29T09:07:53;7.47;;;6.80;;
2854;SDS011;1435;49.472;10.940;2023-01-29T09:12:56;8.80;;;7.87;;
2854;SDS011;1435;49.472;10.940;2023-01-29T09:18:01;7.90;;;7.10;;
2854;SDS011;1435;49.472;10.940;2023-01-29T09:23:05;7.80;;;6.87;;
2854;SDS011;1435;49.472;10.940;2023-01-29T09:28:08;9.33;;;8.00;;
2854;SDS011;1435;49.472;10.940;2023-01-29T09:33:10;9.87;;;8.60;;
2854;SDS011;1435;49.472;10.940;2023-01-29T09:38:13;9.20;;;8.03;;
2854;SDS011;1435;49.472;10.940;2023-01-29T09:43:15;10.00;;;8.60;;
2854;SDS011;1435;49.472;10.940;2023-01-29T09:48:21;10.30;;;9.20;;
2854;SDS011;1435;49.472;10.940;2023-01-29T09:53:29;8.87;;;8.07;;
2854;SDS011;1435;49.472;10.940;2023-01-29T09:58:37;7.93;;;7.13;;
2854;SDS011;1435;49.472;10.940;2023-01-29T10:03:51;9.53;;;8.60;;
2854;SDS011;1435;49.472;10.940;2023-01-29T10:09:30;8.40;;;7.50;;
2854;SDS011;1435;49.472;10.940;2023-01-29T10:14:43;10.80;;;8.80;;
2854;SDS011;1435;49.472;10.940;2023-01-29T10:19:54;7.57;;;6.90;;
2854;SDS011;1435;49.472;10.940;2023-01-29T10:25:08;10.00;;;7.87;;
2854;SDS011;1435;49.472;10.940;2023-01-29T10:30:18;9.30;;;8.30;;
2854;SDS011;1435;49.472;10.940;2023-01-29T10:35:26;8.90;;;8.00;;
2854;SDS011;1435;49.472;10.940;2023-01-29T10:40:33;9.10;;;8.20;;
2854;SDS011;1435;49.472;10.940;2023-01-29T10:45:41;9.43;;;8.43;;
2854;SDS011;1435;49.472;10.940;2023-01-29T10:50:48;11.07;;;8.80;;
2854;SDS011;1435;49.472;10.940;2023-01-29T10:56:00;11.10;;;9.17;;
2854;SDS011;1435;49.472;10.940;2023-01-29T11:01:09;10.83;;;8.70;;
2854;SDS011;1435;49.472;10.940;2023-01-29T11:06:12;9.47;;;8.57;;
2854;SDS011;1435;49.472;10.940;2023-01-29T11:11:19;9.27;;;7.87;;
2854;SDS011;1435;49.472;10.940;2023-01-29T11:16:24;9.30;;;8.50;;
2854;SDS011;1435;49.472;10.940;2023-01-29T11:21:29;11.47;;;9.70;;
2854;SDS011;1435;49.472;10.940;2023-01-29T11:26:32;8.70;;;7.83;;
2854;SDS011;1435;49.472;10.940;2023-01-29T11:31:35;10.70;;;8.97;;
2854;SDS011;1435;49.472;10.940;2023-01-29T11:36:38;8.80;;;7.90;;
2854;SDS011;1435;49.472;10.940;2023-01-29T11:41:46;10.50;;;9.20;;
2854;SDS011;1435;49.472;10.940;2023-01-29T11:46:49;9.37;;;7.83;;
2854;SDS011;1435;49.472;10.940;2023-01-29T11:51:51;8.30;;;7.50;;
2854;SDS011;1435;49.472;10.940;2023-01-29T11:56:57;9.73;;;7.73;;
2854;SDS011;1435;49.472;10.940;2023-01-29T12:02:02;10.10;;;7.93;;
2854;SDS011;1435;49.472;10.940;2023-01-29T12:07:11;8.63;;;7.80;;
2854;SDS011;1435;49.472;10.940;2023-01-29T12:12:23;8.80;;;7.90;;
2854;SDS011;1435;49.472;10.940;2023-01-29T12:17:38;9.33;;;8.07;;
2854;SDS011;1435;49.472;10.940;2023-01-29T12:22:44;8.97;;;7.50;;
2854;SDS011;1435;49.472;10.940;2023-01-29T12:27:53;8.47;;;7.57;;
2854;SDS011;1435;49.472;10.940;2023-01-29T12:33:02;7.27;;;6.57;;
2854;SDS011;1435;49.472;10.940;2023-01-29T12:38:11;7.17;;;6.47;;
2854;SDS011;1435;49.472;10.940;2023-01-29T12:43:21;7.40;;;6.40;;
2854;SDS011;1435;49.472;10.940;2023-01-29T12:48:29;7.47;;;6.63;;
2854;SDS011;1435;49.472;10.940;2023-01-29T12:53:36;7.73;;;6.50;;
2854;SDS011;1435;49.472;10.940;2023-01-29T12:58:44;8.83;;;6.70;;
2854;SDS011;1435;49.472;10.940;2023-01-29T13:03:50;7.43;;;6.57;;
2854;SDS011;1435;49.472;10.940;2023-01-29T13:08:56;7.17;;;6.47;;
2854;SDS011;1435;49.472;10.940;2023-01-29T13:14:05;8.30;;;7.50;;
2854;SDS011;1435;49.472;10.940;2023-01-29T13:19:13;7.80;;;6.60;;
2854;SDS011;1435;49.472;10.940;2023-01-29T13:24:23;10.70;;;9.00;;
2854;SDS011;1435;49.472;10.940;2023-01-29T13:29:31;7.43;;;6.63;;
2854;SDS011;1435;49.472;10.940;2023-01-29T13:34:34;6.87;;;6.27;;
2854;SDS011;1435;49.472;10.940;2023-01-29T13:39:39;8.00;;;6.63;;
2854;SDS011;1435;49.472;10.940;2023-01-29T13:44:50;6.60;;;5.90;;
2854;SDS011;1435;49.472;10.940;2023-01-29T13:49:54;8.13;;;5.53;;
2854;SDS011;1435;49.472;10.940;2023-01-29T13:55:00;7.50;;;6.80;;
2854;SDS011;1435;49.472;10.940;2023-01-29T14:00:09;7.77;;;6.63;;
2854;SDS011;1435;49.472;10.940;2023-01-29T14:05:57;5.83;;;5.33;;
2854;SDS011;1435;49.472;10.940;2023-01-29T14:16:36;7.07;;;6.03;;
2854;SDS011;1435;49.472;10.940;2023-01-29T14:21:39;9.87;;;7.40;;
2854;SDS011;1435;49.472;10.940;2023-01-29T14:26:41;7.97;;;7.17;;
2854;SDS011;1435;49.472;10.940;2023-01-29T14:31:48;7.03;;;6.33;;
2854;SDS011;1435;49.472;10.940;2023-01-29T14:36:54;7.13;;;6.43;;
2854;SDS011;1435;49.472;10.940;2023-01-29T14:41:57;12.10;;;6.50;;
2854;SDS011;1435;49.472;10.940;2023-01-29T14:47:02;6.77;;;6.07;;
2854;SDS011;1435;49.472;10.940;2023-01-29T14:52:04;6.13;;;5.63;;
2854;SDS011;1435;49.472;10.940;2023-01-29T14:57:11;8.50;;;6.37;;
2854;SDS011;1435;49.472;10.940;2023-01-29T15:02:17;9.33;;;7.80;;
2854;SDS011;1435;49.472;10.940;2023-01-29T15:07:26;7.30;;;6.10;;
2854;SDS011;1435;49.472;10.940;2023-01-29T15:12:31;6.47;;;5.87;;
2854;SDS011;1435;49.472;10.940;2023-01-29T15:17:40;6.93;;;6.30;;
2854;SDS011;1435;49.472;10.940;2023-01-29T15:22:52;6.60;;;6.00;;
2854;SDS011;1435;49.472;10.940;2023-01-29T15:27:54;7.30;;;6.37;;
2854;SDS011;1435;49.472;10.940;2023-01-29T15:32:58;7.07;;;6.50;;
2854;SDS011;1435;49.472;10.940;2023-01-29T15:38:02;7.73;;;6.40;;
2854;SDS011;1435;49.472;10.940;2023-01-29T15:43:16;7.30;;;6.30;;
2854;SDS011;1435;49.472;10.940;2023-01-29T15:48:24;8.00;;;6.97;;
2854;SDS011;1435;49.472;10.940;2023-01-29T15:53:36;6.77;;;6.07;;
2854;SDS011;1435;49.472;10.940;2023-01-29T15:58:42;6.60;;;6.00;;
2854;SDS011;1435;49.472;10.940;2023-01-29T16:03:49;5.60;;;5.10;;
2854;SDS011;1435;49.472;10.940;2023-01-29T16:08:52;6.50;;;5.90;;
2854;SDS011;1435;49.472;10.940;2023-01-29T16:13:55;6.07;;;5.33;;
2854;SDS011;1435;49.472;10.940;2023-01-29T16:18:59;6.00;;;5.40;;
2854;SDS011;1435;49.472;10.940;2023-01-29T16:24:01;6.60;;;6.00;;
2854;SDS011;1435;49.472;10.940;2023-01-29T16:29:09;7.57;;;6.77;;
2854;SDS011;1435;49.472;10.940;2023-01-29T16:34:15;6.67;;;6.00;;
2854;SDS011;1435;49.472;10.940;2023-01-29T16:39:24;5.93;;;5.30;;
2854;SDS011;1435;49.472;10.940;2023-01-29T16:44:31;6.50;;;5.90;;
2854;SDS011;1435;49.472;10.940;2023-01-29T16:49:44;6.67;;;5.93;;
2854;SDS011;1435;49.472;10.940;2023-01-29T16:57:39;6.87;;;6.10;;
2854;SDS011;1435;49.472;10.940;2023-01-29T17:02:42;6.37;;;5.73;;
2854;SDS011;1435;49.472;10.940;2023-01-29T17:07:43;7.93;;;7.00;;
2854;SDS011;1435;49.472;10.940;2023-01-29T17:12:49;10.73;;;7.30;;
2854;SDS011;1435;49.472;10.940;2023-01-29T17:17:54;7.53;;;6.67;;
2854;SDS011;1435;49.472;10.940;2023-01-29T17:22:56;7.77;;;7.00;;
2854;SDS011;1435;49.472;10.940;2023-01-29T17:28:00;7.97;;;6.73;;
2854;SDS011;1435;49.472;10.940;2023-01-29T17:33:08;8.73;;;6.60;;
2854;SDS011;1435;49.472;10.940;2023-01-29T17:38:13;9.20;;;7.30;;
2854;SDS011;1435;49.472;10.940;2023-01-29T17:43:17;8.60;;;7.70;;
2854;SDS011;1435;49.472;10.940;2023-01-29T17:48:20;11.50;;;8.73;;
2854;SDS011;1435;49.472;10.940;2023-01-29T17:53:23;8.40;;;7.60;;
2854;SDS011;1435;49.472;10.940;2023-01-29T17:58:26;9.60;;;8.00;;
2854;SDS011;1435;49.472;10.940;2023-01-29T18:03:28;10.37;;;8.80;;
2854;SDS011;1435;49.472;10.940;2023-01-29T18:08:30;8.50;;;7.07;;
2854;SDS011;1435;49.472;10.940;2023-01-29T18:13:35;9.73;;;8.70;;
2854;SDS011;1435;49.472;10.940;2023-01-29T18:18:36;10.10;;;9.00;;
2854;SDS011;1435;49.472;10.940;2023-01-29T18:23:39;10.60;;;7.80;;
2854;SDS011;1435;49.472;10.940;2023-01-29T18:28:42;11.53;;;9.10;;
2854;SDS011;1435;49.472;10.940;2023-01-29T18:33:44;10.00;;;9.00;;
2854;SDS011;1435;49.472;10.940;2023-01-29T18:38:46;10.90;;;9.80;;
2854;SDS011;1435;49.472;10.940;2023-01-29T18:43:49;10.10;;;9.07;;
2854;SDS011;1435;49.472;10.940;2023-01-29T18:48:51;11.07;;;9.83;;
2854;SDS011;1435;49.472;10.940;2023-01-29T18:53:53;12.07;;;8.93;;
2854;SDS011;1435;49.472;10.940;2023-01-29T18:58:56;8.20;;;7.40;;
2854;SDS011;1435;49.472;10.940;2023-01-29T19:03:58;10.40;;;8.50;;
2854;SDS011;1435;49.472;10.940;2023-01-29T19:09:00;10.50;;;8.47;;
2854;SDS011;1435;49.472;10.940;2023-01-29T19:14:04;9.40;;;7.70;;
2854;SDS011;1435;49.472;10.940;2023-01-29T19:19:05;9.67;;;8.27;;
2854;SDS011;1435;49.472;10.940;2023-01-29T19:24:07;8.43;;;7.63;;
2854;SDS011;1435;49.472;10.940;2023-01-29T19:29:12;10.73;;;9.63;;
2854;SDS011;1435;49.472;10.940;2023-01-29T19:34:13;7.67;;;7.00;;
2854;SDS011;1435;49.472;10.940;2023-01-29T19:39:15;14.53;;;9.30;;
2854;SDS011;1435;49.472;10.940;2023-01-29T19:44:19;8.50;;;7.70;;
2854;SDS011;1435;49.472;10.940;2023-01-29T19:49:20;8.13;;;7.10;;
2854;SDS011;1435;49.472;10.940;2023-01-29T19:54:22;10.10;;;7.40;;
2854;SDS011;1435;49.472;10.940;2023-01-29T19:59:27;9.27;;;7.53;;
2854;SDS011;1435;49.472;10.940;2023-01-29T20:04:29;11.30;;;8.60;;
2854;SDS011;1435;49.472;10.940;2023-01-29T20:09:31;10.73;;;8.93;;
2854;SDS011;1435;49.472;10.940;2023-01-29T20:14:34;8.77;;;7.90;;
2854;SDS011;1435;49.472;10.940;2023-01-29T20:19:35;10.20;;;8.00;;
2854;SDS011;1435;49.472;10.940;2023-01-29T20:24:37;11.53;;;9.13;;
2854;SDS011;1435;49.472;10.940;2023-01-29T20:29:42;11.03;;;9.87;;
2854;SDS011;1435;49.472;10.940;2023-01-29T20:34:45;15.10;;;11.90;;
2854;SDS011;1435;49.472;10.940;2023-01-29T20:39:50;15.23;;;11.97;;
2854;SDS011;1435;49.472;10.940;2023-01-29T20:44:54;20.40;;;13.50;;
2854;SDS011;1435;49.472;10.940;2023-01-29T20:49:55;19.43;;;14.00;;
2854;SDS011;1435;49.472;10.940;2023-01-29T20:54:57;21.93;;;16.80;;
2854;SDS011;1435;49.472;10.940;2023-01-29T21:00:00;15.50;;;11.93;;
2854;SDS011;1435;49.472;10.940;2023-01-29T21:05:02;16.50;;;13.20;;
2854;SDS011;1435;49.472;10.940;2023-01-29T21:10:05;17.90;;;12.43;;
2854;SDS011;1435;49.472;10.940;2023-01-29T21:15:10;14.67;;;13.03;;
2854;SDS011;1435;49.472;10.940;2023-01-29T21:20:12;15.87;;;13.27;;
2854;SDS011;1435;49.472;10.940;2023-01-29T21:25:14;17.80;;;13.30;;
2854;SDS011;1435;49.472;10.940;2023-01-29T21:30:20;18.97;;;13.50;;
2854;SDS011;1435;49.472;10.940;2023-01-29T21:35:22;20.80;;;13.87;;
2854;SDS011;1435;49.472;10.940;2023-01-29T21:40:23;14.00;;;11.73;;
2854;SDS011;1435;49.472;10.940;2023-01-29T21:45:26;16.37;;;12.40;;
2854;SDS011;1435;49.472;10.940;2023-01-29T21:50:29;18.87;;;13.03;;
2854;SDS011;1435;49.472;10.940;2023-01-29T21:55:31;14.70;;;11.53;;
2854;SDS011;1435;49.472;10.940;2023-01-29T22:00:34;18.15;;;14.60;;
2854;SDS011;1435;49.472;10.940;2023-01-29T22:05:36;13.83;;;12.50;;
2854;SDS011;1435;49.472;10.940;2023-01-29T22:10:38;13.93;;;11.50;;
2854;SDS011;1435;49.472;10.940;2023-01-29T22:15:41;15.40;;;11.80;;
2854;SDS011;1435;49.472;10.940;2023-01-29T22:20:43;16.13;;;12.80;;
2854;SDS011;1435;49.472;10.940;2023-01-29T22:25:44;19.20;;;13.33;;
2854;SDS011;1435;49.472;10.940;2023-01-29T22:30:47;14.80;;;12.60;;
2854;SDS011;1435;49.472;10.940;2023-01-29T22:35:52;15.63;;;12.23;;
2854;SDS011;1435;49.472;10.940;2023-01-29T22:40:55;16.80;;;13.73;;
2854;SDS011;1435;49.472;10.940;2023-01-29T22:45:58;18.53;;;14.97;;
2854;SDS011;1435;49.472;10.940;2023-01-29T22:51:00;20.17;;;14.27;;
2854;SDS011;1435;49.472;10.940;2023-01-29T22:56:09;14.40;;;12.90;;
2854;SDS011;1435;49.472;10.940;2023-01-29T23:01:13;18.23;;;14.30;;
2854;SDS011;1435;49.472;10.940;2023-01-29T23:06:18;16.60;;;12.70;;
2854;SDS011;1435;49.472;10.940;2023-01-29T23:11:21;15.73;;;12.60;;
2854;SDS011;1435;49.472;10.940;2023-01-29T23:16:24;20.63;;;13.43;;
2854;SDS011;1435;49.472;10.940;2023-01-29T23:21:27;18.57;;;12.63;;
2854;SDS011;1435;49.472;10.940;2023-01-29T23:26:29;19.97;;;12.93;;
2854;SDS011;1435;49.472;10.940;2023-01-29T23:31:50;15.90;;;12.97;;
2854;SDS011;1435;49.472;10.940;2023-01-29T23:36:51;13.50;;;11.07;;
2854;SDS011;1435;49.472;10.940;2023-01-29T23:41:53;15.70;;;12.40;;
2854;SDS011;1435;49.472;10.940;2023-01-29T23:46:56;15.73;;;11.33;;
2854;SDS011;1435;49.472;10.940;2023-01-29T23:51:58;18.77;;;13.57;;
2854;SDS011;1435;49.472;10.940;2023-01-29T23:56:59;16.90;;;11.90;;
